createdAt,value
2023-02-12T00:00:04.024Z,10.07
2023-02-12T00:02:43.861Z,10.23
2023-02-12T00:05:11.405Z,8.37
2023-02-12T00:07:38.894Z,8.57
2023-02-12T00:10:07.365Z,9.80
2023-02-12T00:12:34.863Z,8.73
2023-02-12T00:15:02.546Z,9.57
2023-02-12T00:17:30.056Z,9.13
2023-02-12T00:19:58.907Z,10.30
2023-02-12T00:22:26.486Z,9.50
2023-02-12T00:24:54.076Z,8.53
2023-02-12T00:27:21.725Z,9.03
2023-02-12T00:29:50.316Z,9.47
2023-02-12T00:32:19.443Z,10.37
2023-02-12T00:34:47.116Z,9.60
2023-02-12T00:37:18.379Z,9.00
2023-02-12T00:39:46.760Z,8.50
2023-02-12T00:42:14.341Z,8.60
2023-02-12T00:44:41.808Z,8.50
2023-02-12T00:47:09.330Z,7.90
2023-02-12T00:49:36.949Z,8.63
2023-02-12T00:52:06.302Z,8.47
2023-02-12T00:54:35.253Z,8.20
2023-02-12T00:57:03.263Z,5.90
2023-02-12T00:59:31.438Z,8.50
2023-02-12T01:01:59.051Z,8.30
2023-02-12T01:04:26.998Z,7.33
2023-02-12T01:06:55.986Z,8.73
2023-02-12T01:09:23.738Z,7.77
2023-02-12T01:11:52.816Z,8.40
2023-02-12T01:14:20.322Z,8.53
2023-02-12T01:16:47.835Z,8.00
2023-02-12T01:19:17.413Z,7.20
2023-02-12T01:21:44.989Z,9.90
2023-02-12T01:24:12.560Z,9.30
2023-02-12T01:26:40.141Z,8.20
2023-02-12T01:29:09.376Z,8.97
2023-02-12T01:31:39.562Z,9.10
2023-02-12T01:34:08.294Z,8.80
2023-02-12T01:36:36.470Z,7.80
2023-02-12T01:39:05.413Z,9.20
2023-02-12T01:41:34.476Z,7.90
2023-02-12T01:44:12.808Z,8.20
2023-02-12T01:46:41.320Z,9.13
2023-02-12T01:49:12.352Z,9.17
2023-02-12T01:51:40.585Z,8.27
2023-02-12T01:54:09.851Z,9.63
2023-02-12T01:56:38.298Z,9.07
2023-02-12T01:59:06.637Z,9.20
2023-02-12T02:01:36.003Z,7.53
2023-02-12T02:04:06.932Z,7.07
2023-02-12T02:06:37.286Z,7.60
2023-02-12T02:09:06.376Z,7.97
2023-02-12T02:11:51.628Z,8.40
2023-02-12T02:14:35.001Z,7.53
2023-02-12T02:17:28.014Z,6.70
2023-02-12T02:20:23.534Z,7.53
2023-02-12T02:22:55.652Z,6.37
2023-02-12T02:25:49.867Z,7.07
2023-02-12T02:28:45.237Z,6.10
2023-02-12T02:31:16.252Z,5.30
2023-02-12T02:33:49.619Z,6.30
2023-02-12T02:36:26.382Z,6.90
2023-02-12T02:38:57.296Z,6.60
2023-02-12T02:41:29.578Z,6.80
2023-02-12T02:43:57.441Z,7.10
2023-02-12T02:46:29.142Z,7.90
2023-02-12T02:48:59.863Z,7.03
2023-02-12T02:51:30.678Z,6.43
2023-02-12T02:54:03.047Z,6.93
2023-02-12T02:56:31.008Z,6.77
2023-02-12T02:59:00.793Z,6.00
2023-02-12T03:01:32.640Z,6.47
2023-02-12T03:04:02.786Z,6.23
2023-02-12T03:06:35.547Z,6.50
2023-02-12T03:09:07.021Z,8.20
2023-02-12T03:11:35.733Z,7.87
2023-02-12T03:14:07.634Z,6.53
2023-02-12T03:16:39.594Z,7.20
2023-02-12T03:19:10.007Z,6.33
2023-02-12T03:21:44.735Z,6.90
2023-02-12T03:24:14.835Z,6.67
2023-02-12T03:26:46.351Z,8.10
2023-02-12T03:29:14.171Z,7.40
2023-02-12T03:31:52.663Z,6.30
2023-02-12T03:34:25.938Z,5.80
2023-02-12T03:36:56.095Z,5.70
2023-02-12T03:39:29.913Z,5.70
2023-02-12T03:42:03.346Z,5.97
2023-02-12T03:44:40.984Z,5.87
2023-02-12T03:47:19.148Z,5.17
2023-02-12T03:49:53.264Z,6.60
2023-02-12T03:52:20.895Z,7.13
2023-02-12T03:54:48.432Z,7.30
2023-02-12T03:57:18.869Z,7.23
2023-02-12T03:59:46.912Z,8.10
2023-02-12T04:02:17.721Z,8.90
2023-02-12T04:04:45.660Z,7.90
2023-02-12T04:07:14.116Z,7.77
2023-02-12T04:09:41.874Z,9.57
2023-02-12T04:12:31.200Z,8.07
2023-02-12T04:15:08.757Z,10.60
2023-02-12T04:17:46.592Z,9.60
2023-02-12T04:20:24.205Z,9.30
2023-02-12T04:22:56.258Z,8.53
2023-02-12T04:25:37.992Z,9.47
2023-02-12T04:28:09.929Z,8.40
2023-02-12T04:30:40.471Z,9.53
2023-02-12T04:33:11.829Z,10.03
2023-02-12T04:35:43.214Z,8.30
2023-02-12T04:38:12.784Z,8.03
2023-02-12T04:40:41.466Z,10.20
2023-02-12T04:43:09.619Z,9.83
2023-02-12T04:45:38.175Z,8.17
2023-02-12T04:48:07.485Z,7.47
2023-02-12T04:50:40.823Z,9.03
2023-02-12T04:53:08.991Z,8.47
2023-02-12T04:55:36.571Z,8.47
2023-02-12T04:58:04.315Z,8.20
2023-02-12T05:00:31.909Z,8.97
2023-02-12T05:02:59.471Z,8.03
2023-02-12T05:05:28.010Z,8.80
2023-02-12T05:07:56.847Z,8.33
2023-02-12T05:10:24.522Z,8.70
2023-02-12T05:12:52.920Z,9.60
2023-02-12T05:15:20.472Z,8.60
2023-02-12T05:17:47.985Z,10.00
2023-02-12T05:20:15.845Z,10.43
2023-02-12T05:22:43.309Z,11.00
2023-02-12T05:25:12.224Z,11.20
2023-02-12T05:27:39.732Z,11.67
2023-02-12T05:30:11.130Z,11.00
2023-02-12T05:32:41.132Z,11.70
2023-02-12T05:35:08.990Z,14.30
2023-02-12T05:37:36.968Z,14.97
2023-02-12T05:40:05.621Z,14.33
2023-02-12T05:42:34.490Z,14.47
2023-02-12T05:45:02.040Z,12.63
2023-02-12T05:47:29.626Z,15.73
2023-02-12T05:49:57.124Z,13.80
2023-02-12T05:52:24.682Z,15.00
2023-02-12T05:54:52.185Z,15.87
2023-02-12T05:57:19.766Z,16.30
2023-02-12T05:59:48.618Z,15.33
2023-02-12T06:02:16.179Z,14.37
2023-02-12T06:04:43.658Z,16.40
2023-02-12T06:07:11.157Z,15.83
2023-02-12T06:09:38.891Z,16.90
2023-02-12T06:12:06.589Z,17.70
2023-02-12T06:14:34.042Z,15.70
2023-02-12T06:17:02.874Z,18.60
2023-02-12T06:19:30.497Z,15.57
2023-02-12T06:21:58.013Z,17.80
2023-02-12T06:24:25.514Z,16.80
2023-02-12T06:26:53.344Z,15.97
2023-02-12T06:29:21.263Z,16.47
2023-02-12T06:31:49.079Z,18.70
2023-02-12T06:34:18.387Z,17.17
2023-02-12T06:36:47.279Z,16.33
2023-02-12T06:39:15.902Z,17.37
2023-02-12T06:41:43.848Z,17.60
2023-02-12T06:44:12.097Z,18.20
2023-02-12T06:46:39.825Z,17.43
2023-02-12T06:49:07.422Z,17.57
2023-02-12T06:51:38.217Z,18.90
2023-02-12T06:54:05.897Z,18.77
2023-02-12T06:56:33.395Z,17.97
2023-02-12T06:59:01.378Z,18.57
2023-02-12T07:01:30.734Z,17.87
2023-02-12T07:03:59.917Z,17.10
2023-02-12T07:06:28.538Z,16.97
2023-02-12T07:08:58.263Z,16.90
2023-02-12T07:11:26.808Z,16.67
2023-02-12T07:13:54.370Z,15.90
2023-02-12T07:16:22.182Z,16.10
2023-02-12T07:18:50.027Z,15.80
2023-02-12T07:21:18.335Z,15.57
2023-02-12T07:23:49.793Z,15.60
2023-02-12T07:26:20.805Z,15.60
2023-02-12T07:28:48.372Z,15.30
2023-02-12T07:31:18.462Z,16.60
2023-02-12T07:33:46.860Z,16.83
2023-02-12T07:36:16.101Z,17.93
2023-02-12T07:38:43.664Z,16.43
2023-02-12T07:41:13.172Z,17.73
2023-02-12T07:43:43.291Z,17.30
2023-02-12T07:46:12.775Z,19.13
2023-02-12T07:48:40.747Z,16.37
2023-02-12T07:51:10.218Z,17.57
2023-02-12T07:53:38.270Z,18.10
2023-02-12T07:56:10.355Z,19.10
2023-02-12T07:58:38.226Z,17.80
2023-02-12T08:01:15.316Z,18.17
2023-02-12T08:03:43.223Z,20.17
2023-02-12T08:06:11.783Z,19.80
2023-02-12T08:08:39.687Z,18.47
2023-02-12T08:11:07.974Z,20.30
2023-02-12T08:13:35.815Z,19.10
2023-02-12T08:16:04.172Z,19.43
2023-02-12T08:18:33.691Z,18.03
2023-02-12T08:21:05.880Z,17.87
2023-02-12T08:23:33.993Z,19.77
2023-02-12T08:26:09.606Z,22.07
2023-02-12T08:28:38.321Z,20.90
2023-02-12T08:31:10.971Z,20.73
2023-02-12T08:33:41.009Z,19.63
2023-02-12T08:36:11.280Z,20.60
2023-02-12T08:38:39.332Z,21.87
2023-02-12T08:41:09.706Z,20.70
2023-02-12T08:43:37.834Z,18.30
2023-02-12T08:46:06.697Z,20.60
2023-02-12T08:48:34.570Z,19.10
2023-02-12T08:51:08.209Z,21.13
2023-02-12T08:53:36.052Z,21.27
2023-02-12T08:56:03.806Z,20.87
2023-02-12T08:58:31.480Z,19.03
2023-02-12T09:00:59.037Z,17.80
2023-02-12T09:03:26.736Z,19.50
2023-02-12T09:05:54.654Z,17.47
2023-02-12T09:08:23.765Z,18.63
2023-02-12T09:10:51.226Z,18.93
2023-02-12T09:13:18.797Z,18.33
2023-02-12T09:15:46.988Z,17.20
2023-02-12T09:18:15.405Z,17.47
2023-02-12T09:20:44.818Z,17.70
2023-02-12T09:23:14.587Z,18.20
2023-02-12T09:25:45.249Z,18.10
2023-02-12T09:28:14.719Z,17.13
2023-02-12T09:30:42.540Z,18.03
2023-02-12T09:33:12.077Z,18.80
2023-02-12T09:35:40.432Z,17.40
2023-02-12T09:38:09.095Z,18.50
2023-02-12T09:40:40.699Z,16.63
2023-02-12T09:43:18.325Z,17.50
2023-02-12T09:45:50.373Z,18.17
2023-02-12T09:48:34.208Z,17.80
2023-02-12T09:51:05.783Z,18.70
2023-02-12T09:53:36.420Z,19.03
2023-02-12T09:56:04.135Z,19.87
2023-02-12T09:58:35.412Z,20.23
2023-02-12T10:01:03.338Z,21.70
2023-02-12T10:03:31.932Z,21.00
2023-02-12T10:06:02.678Z,23.20
2023-02-12T10:08:40.550Z,23.60
2023-02-12T10:11:26.996Z,21.00
2023-02-12T10:14:05.370Z,20.57
2023-02-12T10:16:43.361Z,19.50
2023-02-12T10:19:23.856Z,22.67
2023-02-12T10:22:00.171Z,23.30
2023-02-12T10:24:50.782Z,22.97
2023-02-12T10:27:28.909Z,22.67
2023-02-12T10:29:59.619Z,20.03
2023-02-12T10:32:32.288Z,21.07
2023-02-12T10:35:00.827Z,22.53
2023-02-12T10:37:35.482Z,23.83
2023-02-12T10:40:07.586Z,24.97
2023-02-12T10:42:39.691Z,24.20
2023-02-12T10:45:14.597Z,26.97
2023-02-12T10:47:42.284Z,23.67
2023-02-12T10:50:19.379Z,24.63
2023-02-12T10:52:49.445Z,21.33
2023-02-12T10:55:26.112Z,22.97
2023-02-12T10:57:53.972Z,22.47
2023-02-12T11:00:31.281Z,21.30
2023-02-12T11:03:09.845Z,23.40
2023-02-12T11:05:39.811Z,22.63
2023-02-12T11:08:08.363Z,23.20
2023-02-12T11:10:38.973Z,24.00
2023-02-12T11:13:11.452Z,25.60
2023-02-12T11:15:48.386Z,24.10
2023-02-12T11:18:25.354Z,24.87
2023-02-12T11:20:54.714Z,23.43
2023-02-12T11:23:27.815Z,20.47
2023-02-12T11:25:58.627Z,21.20
2023-02-12T11:28:26.680Z,21.90
2023-02-12T11:30:59.426Z,20.50
2023-02-12T11:33:29.936Z,20.10
2023-02-12T11:35:59.355Z,20.70
2023-02-12T11:38:30.184Z,21.00
2023-02-12T11:41:01.124Z,20.70
2023-02-12T11:43:30.949Z,19.83
2023-02-12T11:46:01.853Z,20.50
2023-02-12T11:48:32.210Z,20.20
2023-02-12T11:51:02.290Z,18.90
2023-02-12T11:53:32.184Z,20.40
2023-02-12T11:56:02.674Z,19.70
2023-02-12T11:58:31.517Z,19.97
2023-02-12T12:01:10.547Z,20.53
2023-02-12T12:03:44.353Z,24.00
2023-02-12T12:06:22.657Z,21.53
2023-02-12T12:08:54.623Z,22.43
2023-02-12T12:11:25.586Z,21.70
2023-02-12T12:13:58.700Z,22.93
2023-02-12T12:16:50.374Z,19.97
2023-02-12T12:19:50.518Z,21.17
2023-02-12T12:22:37.750Z,18.20
2023-02-12T12:25:13.903Z,18.00
2023-02-12T12:28:05.417Z,18.53
2023-02-12T12:30:46.967Z,19.77
2023-02-12T12:33:18.743Z,13.90
2023-02-12T12:35:49.900Z,14.77
2023-02-12T12:38:24.001Z,15.37
2023-02-12T12:41:01.685Z,12.97
2023-02-12T12:43:38.331Z,13.70
2023-02-12T12:46:24.810Z,14.13
2023-02-12T12:49:12.329Z,13.67
2023-02-12T12:52:00.121Z,13.83
2023-02-12T12:54:40.022Z,12.90
2023-02-12T12:57:16.701Z,12.50
2023-02-12T13:00:15.776Z,12.03
2023-02-12T13:03:05.215Z,11.70
2023-02-12T13:06:08.256Z,11.13
2023-02-12T13:08:50.898Z,13.07
2023-02-12T13:11:29.929Z,13.57
2023-02-12T13:14:04.912Z,12.17
2023-02-12T13:16:37.344Z,12.23
2023-02-12T13:19:08.555Z,11.23
2023-02-12T13:21:43.239Z,11.23
2023-02-12T13:24:20.695Z,9.47
2023-02-12T13:26:53.650Z,7.90
2023-02-12T13:29:24.577Z,8.00
2023-02-12T13:31:55.347Z,7.93
2023-02-12T13:34:26.378Z,6.93
2023-02-12T13:36:53.965Z,6.40
2023-02-12T13:39:29.827Z,6.73
2023-02-12T13:42:07.056Z,7.33
2023-02-12T13:44:41.384Z,7.80
2023-02-12T13:47:15.395Z,7.73
2023-02-12T13:49:47.304Z,7.10
2023-02-12T13:52:20.720Z,7.23
2023-02-12T13:54:58.166Z,9.57
2023-02-12T13:57:25.723Z,7.17
2023-02-12T13:59:54.745Z,9.33
2023-02-12T14:02:44.326Z,5.70
2023-02-12T14:05:30.961Z,6.80
2023-02-12T14:08:01.987Z,8.30
2023-02-12T14:10:34.425Z,8.50
2023-02-12T14:13:18.687Z,10.03
2023-02-12T14:15:51.053Z,9.80
2023-02-12T14:18:25.544Z,6.00
2023-02-12T14:21:31.834Z,6.57
2023-02-12T14:24:50.333Z,6.03
2023-02-12T14:27:43.619Z,6.83
2023-02-12T14:30:27.872Z,9.00
2023-02-12T14:33:01.439Z,7.50
2023-02-12T14:35:33.390Z,9.90
2023-02-12T14:38:02.090Z,10.30
2023-02-12T14:40:44.354Z,10.07
2023-02-12T14:43:31.048Z,9.17
2023-02-12T14:46:00.400Z,9.00
2023-02-12T14:48:41.655Z,8.90
2023-02-12T14:51:15.871Z,8.63
2023-02-12T14:53:45.343Z,8.73
2023-02-12T14:56:13.395Z,8.50
2023-02-12T14:58:42.560Z,8.87
2023-02-12T15:01:10.236Z,9.30
2023-02-12T15:03:43.084Z,9.17
2023-02-12T15:06:14.638Z,9.10
2023-02-12T15:08:50.577Z,9.93
2023-02-12T15:11:26.196Z,7.77
2023-02-12T15:13:59.663Z,7.53
2023-02-12T15:16:44.781Z,6.87
2023-02-12T15:19:24.364Z,7.50
2023-02-12T15:21:55.542Z,7.80
2023-02-12T15:24:24.450Z,9.33
2023-02-12T15:26:53.270Z,9.27
2023-02-12T15:29:25.725Z,8.27
2023-02-12T15:31:55.895Z,9.20
2023-02-12T15:34:25.668Z,8.67
2023-02-12T15:36:53.464Z,7.13
2023-02-12T15:39:22.504Z,6.77
2023-02-12T15:41:50.826Z,5.30
2023-02-12T15:44:26.054Z,6.73
2023-02-12T15:46:55.502Z,5.83
2023-02-12T15:49:28.366Z,6.70
2023-02-12T15:51:56.362Z,5.67
2023-02-12T15:54:24.264Z,5.40
2023-02-12T15:56:52.053Z,5.33
2023-02-12T15:59:24.012Z,4.10
2023-02-12T16:01:57.013Z,5.00
2023-02-12T16:04:26.666Z,4.70
2023-02-12T16:06:54.454Z,5.07
2023-02-12T16:09:28.638Z,4.47
2023-02-12T16:11:58.161Z,5.07
2023-02-12T16:14:31.388Z,4.33
2023-02-12T16:17:00.247Z,4.00
2023-02-12T16:19:28.946Z,4.10
2023-02-12T16:22:00.049Z,5.23
2023-02-12T16:24:30.971Z,5.37
2023-02-12T16:27:00.211Z,4.53
2023-02-12T16:29:31.374Z,4.17
2023-02-12T16:32:01.013Z,4.60
2023-02-12T16:34:35.128Z,4.80
2023-02-12T16:37:03.259Z,4.70
2023-02-12T16:40:10.340Z,4.63
2023-02-12T16:42:37.996Z,4.90
2023-02-12T16:45:35.449Z,4.83
2023-02-12T16:48:10.440Z,4.57
2023-02-12T16:50:40.802Z,6.27
2023-02-12T16:53:18.245Z,4.90
2023-02-12T16:55:46.065Z,5.53
2023-02-12T16:58:13.859Z,5.50
2023-02-12T17:00:42.360Z,6.30
2023-02-12T17:03:13.460Z,5.00
2023-02-12T17:05:42.689Z,5.43
2023-02-12T17:08:13.845Z,5.63
2023-02-12T17:10:41.761Z,6.77
2023-02-12T17:13:10.818Z,5.73
2023-02-12T17:15:42.745Z,5.30
2023-02-12T17:18:12.882Z,6.83
2023-02-12T17:20:40.957Z,5.17
2023-02-12T17:23:08.760Z,5.77
2023-02-12T17:25:36.579Z,6.10
2023-02-12T17:28:04.373Z,6.47
2023-02-12T17:30:32.381Z,6.47
2023-02-12T17:33:00.105Z,7.10
2023-02-12T17:35:29.055Z,7.20
2023-02-12T17:37:56.743Z,7.30
2023-02-12T17:40:24.529Z,7.33
2023-02-12T17:42:52.259Z,7.27
2023-02-12T17:45:20.085Z,8.50
2023-02-12T17:47:47.898Z,7.37
2023-02-12T17:50:16.659Z,8.20
2023-02-12T17:52:46.368Z,7.17
2023-02-12T17:55:15.191Z,7.67
2023-02-12T17:57:43.387Z,6.67
2023-02-12T18:00:13.560Z,7.83
2023-02-12T18:02:41.424Z,7.57
2023-02-12T18:05:09.527Z,8.17
2023-02-12T18:07:37.826Z,7.40
2023-02-12T18:10:10.146Z,7.80
2023-02-12T18:12:39.451Z,8.00
2023-02-12T18:15:09.340Z,8.03
2023-02-12T18:17:37.871Z,9.87
2023-02-12T18:20:06.774Z,8.60
2023-02-12T18:22:35.172Z,9.10
2023-02-12T18:25:02.888Z,10.80
2023-02-12T18:27:31.894Z,12.93
2023-02-12T18:29:59.637Z,12.70
2023-02-12T18:32:27.884Z,9.43
2023-02-12T18:34:55.682Z,11.07
2023-02-12T18:37:23.328Z,13.27
2023-02-12T18:39:51.336Z,11.83
2023-02-12T18:42:19.075Z,8.57
2023-02-12T18:44:51.798Z,10.37
2023-02-12T18:47:19.772Z,12.00
2023-02-12T18:49:47.494Z,10.53
2023-02-12T18:52:15.652Z,11.23
2023-02-12T18:54:44.615Z,9.77
2023-02-12T18:57:12.583Z,10.80
2023-02-12T18:59:40.436Z,9.80
2023-02-12T19:02:09.577Z,12.13
2023-02-12T19:04:37.338Z,14.13
2023-02-12T19:07:05.029Z,12.50
2023-02-12T19:09:32.875Z,13.83
2023-02-12T19:12:00.793Z,14.37
2023-02-12T19:14:29.263Z,11.43
2023-02-12T19:16:57.185Z,15.07
2023-02-12T19:19:26.873Z,13.20
2023-02-12T19:21:54.738Z,11.77
2023-02-12T19:24:22.613Z,16.80
2023-02-12T19:26:52.395Z,17.80
2023-02-12T19:29:20.294Z,16.30
2023-02-12T19:31:48.590Z,17.07
2023-02-12T19:34:19.526Z,14.90
2023-02-12T19:36:49.609Z,14.40
2023-02-12T19:39:19.499Z,14.60
2023-02-12T19:41:47.446Z,15.20
2023-02-12T19:44:19.128Z,14.80
2023-02-12T19:46:47.419Z,14.97
2023-02-12T19:49:17.258Z,14.23
2023-02-12T19:51:45.370Z,15.10
2023-02-12T19:54:16.070Z,15.53
2023-02-12T19:56:43.981Z,15.47
2023-02-12T19:59:13.440Z,14.90
2023-02-12T20:01:41.366Z,16.60
2023-02-12T20:04:09.113Z,16.50
2023-02-12T20:06:38.098Z,15.70
2023-02-12T20:09:07.235Z,16.03
2023-02-12T20:11:39.314Z,16.67
2023-02-12T20:14:08.920Z,17.00
2023-02-12T20:16:39.067Z,18.20
2023-02-12T20:19:09.102Z,16.43
2023-02-12T20:21:37.057Z,17.30
2023-02-12T20:24:05.461Z,16.80
2023-02-12T20:26:33.720Z,17.23
2023-02-12T20:29:05.194Z,18.53
2023-02-12T20:31:35.809Z,17.77
2023-02-12T20:34:04.981Z,19.00
2023-02-12T20:36:33.638Z,18.53
2023-02-12T20:39:01.335Z,16.53
2023-02-12T20:41:29.733Z,17.60
2023-02-12T20:44:01.859Z,19.43
2023-02-12T20:46:29.460Z,17.17
2023-02-12T20:48:57.802Z,19.13
2023-02-12T20:51:27.238Z,19.63
2023-02-12T20:53:56.281Z,27.97
2023-02-12T20:56:25.540Z,22.40
2023-02-12T20:58:53.892Z,20.33
2023-02-12T21:01:25.087Z,19.30
2023-02-12T21:03:55.133Z,20.00
2023-02-12T21:06:23.653Z,20.43
2023-02-12T21:08:52.446Z,18.50
2023-02-12T21:11:21.677Z,19.80
2023-02-12T21:13:58.851Z,19.00
2023-02-12T21:16:32.667Z,20.17
2023-02-12T21:19:00.310Z,19.53
2023-02-12T21:21:29.268Z,20.70
2023-02-12T21:23:58.650Z,19.93
2023-02-12T21:26:27.942Z,19.43
2023-02-12T21:28:57.729Z,19.10
2023-02-12T21:31:26.726Z,18.20
2023-02-12T21:33:56.898Z,18.30
2023-02-12T21:36:26.872Z,18.93
2023-02-12T21:38:55.462Z,19.40
2023-02-12T21:41:24.949Z,16.97
2023-02-12T21:43:54.119Z,18.27
2023-02-12T21:46:22.732Z,18.57
2023-02-12T21:48:51.026Z,18.40
2023-02-12T21:51:21.585Z,17.50
2023-02-12T21:53:50.317Z,17.57
2023-02-12T21:56:18.625Z,16.20
2023-02-12T21:58:46.778Z,17.07
2023-02-12T22:01:16.726Z,17.07
2023-02-12T22:03:45.041Z,17.13
2023-02-12T22:06:13.679Z,15.77
2023-02-12T22:08:42.708Z,16.00
2023-02-12T22:11:11.843Z,14.40
2023-02-12T22:13:39.883Z,16.47
2023-02-12T22:16:11.670Z,16.43
2023-02-12T22:18:39.916Z,16.00
2023-02-12T22:21:11.318Z,18.33
2023-02-12T22:23:42.345Z,14.30
2023-02-12T22:26:13.484Z,14.53
2023-02-12T22:28:42.536Z,14.40
2023-02-12T22:31:11.618Z,14.77
2023-02-12T22:33:39.636Z,14.13
2023-02-12T22:36:09.465Z,15.50
2023-02-12T22:38:37.886Z,15.70
2023-02-12T22:41:08.253Z,14.47
2023-02-12T22:43:39.434Z,16.93
2023-02-12T22:46:08.160Z,15.07
2023-02-12T22:48:36.151Z,15.10
2023-02-12T22:51:09.387Z,15.47
2023-02-12T22:53:37.048Z,15.30
2023-02-12T22:56:07.050Z,15.13
2023-02-12T22:58:35.063Z,15.30
2023-02-12T23:01:06.364Z,13.50
2023-02-12T23:03:37.306Z,15.30
2023-02-12T23:06:06.266Z,16.30
2023-02-12T23:08:34.513Z,14.70
2023-02-12T23:11:02.178Z,15.00
2023-02-12T23:13:31.367Z,14.90
2023-02-12T23:15:59.477Z,16.20
2023-02-12T23:18:27.233Z,15.90
2023-02-12T23:20:55.746Z,14.87
2023-02-12T23:23:23.808Z,16.47
2023-02-12T23:25:53.886Z,15.83
2023-02-12T23:28:21.741Z,14.90
2023-02-12T23:30:52.058Z,15.80
2023-02-12T23:33:20.622Z,15.47
2023-02-12T23:35:49.151Z,15.80
2023-02-12T23:38:17.562Z,14.60
2023-02-12T23:40:45.932Z,15.30
2023-02-12T23:43:13.728Z,14.83
2023-02-12T23:45:41.370Z,14.77
2023-02-12T23:48:10.309Z,13.23
2023-02-12T23:50:38.016Z,13.40
2023-02-12T23:53:05.948Z,15.33
2023-02-12T23:55:36.875Z,14.70
2023-02-12T23:58:05.022Z,14.13
